sensor_id;sensor_type;location;lat;lon;timestamp;P1;durP1;ratioP1;P2;durP2;ratioP2
55915;SDS011;41826;53.246;-6.670;2023-04-15T00:00:17;7.25;;;3.40;;
55915;SDS011;41826;53.246;-6.670;2023-04-15T00:02:42;5.18;;;3.10;;
55915;SDS011;41826;53.246;-6.670;2023-04-15T00:05:08;7.72;;;3.35;;
55915;SDS011;41826;53.246;-6.670;2023-04-15T00:07:34;6.18;;;3.40;;
55915;SDS011;41826;53.246;-6.670;2023-04-15T00:10:00;4.45;;;2.95;;
55915;SDS011;41826;53.246;-6.670;2023-04-15T00:12:26;7.05;;;3.25;;
55915;SDS011;41826;53.246;-6.670;2023-04-15T00:14:52;10.48;;;3.03;;
55915;SDS011;41826;53.246;-6.670;2023-04-15T00:17:18;4.15;;;2.55;;
55915;SDS011;41826;53.246;-6.670;2023-04-15T00:19:47;3.63;;;2.42;;
55915;SDS011;41826;53.246;-6.670;2023-04-15T00:22:12;4.45;;;2.58;;
55915;SDS011;41826;53.246;-6.670;2023-04-15T00:24:38;4.97;;;2.70;;
55915;SDS011;41826;53.246;-6.670;2023-04-15T00:27:03;3.95;;;2.63;;
55915;SDS011;41826;53.246;-6.670;2023-04-15T00:29:29;6.25;;;2.55;;
55915;SDS011;41826;53.246;-6.670;2023-04-15T00:31:55;3.75;;;2.38;;
55915;SDS011;41826;53.246;-6.670;2023-04-15T00:34:21;7.95;;;3.13;;
55915;SDS011;41826;53.246;-6.670;2023-04-15T00:36:47;4.18;;;2.30;;
55915;SDS011;41826;53.246;-6.670;2023-04-15T00:39:13;10.48;;;2.17;;
55915;SDS011;41826;53.246;-6.670;2023-04-15T00:41:38;7.88;;;2.35;;
55915;SDS011;41826;53.246;-6.670;2023-04-15T00:44:04;5.35;;;2.28;;
55915;SDS011;41826;53.246;-6.670;2023-04-15T00:46:30;6.35;;;2.33;;
55915;SDS011;41826;53.246;-6.670;2023-04-15T00:48:59;7.05;;;2.70;;
55915;SDS011;41826;53.246;-6.670;2023-04-15T00:51:25;3.22;;;2.05;;
55915;SDS011;41826;53.246;-6.670;2023-04-15T00:53:50;4.70;;;2.33;;
55915;SDS011;41826;53.246;-6.670;2023-04-15T00:56:16;4.00;;;1.85;;
55915;SDS011;41826;53.246;-6.670;2023-04-15T00:58:42;6.07;;;2.58;;
55915;SDS011;41826;53.246;-6.670;2023-04-15T01:01:07;6.95;;;2.30;;
55915;SDS011;41826;53.246;-6.670;2023-04-15T01:03:32;5.05;;;2.40;;
55915;SDS011;41826;53.246;-6.670;2023-04-15T01:05:59;6.63;;;2.50;;
55915;SDS011;41826;53.246;-6.670;2023-04-15T01:08:28;3.85;;;1.85;;
55915;SDS011;41826;53.246;-6.670;2023-04-15T01:10:55;2.25;;;1.92;;
55915;SDS011;41826;53.246;-6.670;2023-04-15T01:13:22;7.75;;;2.17;;
55915;SDS011;41826;53.246;-6.670;2023-04-15T01:15:48;3.97;;;1.80;;
55915;SDS011;41826;53.246;-6.670;2023-04-15T01:18:17;5.70;;;1.90;;
55915;SDS011;41826;53.246;-6.670;2023-04-15T01:20:43;8.70;;;2.42;;
55915;SDS011;41826;53.246;-6.670;2023-04-15T01:23:09;4.35;;;1.70;;
55915;SDS011;41826;53.246;-6.670;2023-04-15T01:25:35;6.28;;;2.03;;
55915;SDS011;41826;53.246;-6.670;2023-04-15T01:28:01;5.85;;;2.47;;
55915;SDS011;41826;53.246;-6.670;2023-04-15T01:30:27;13.88;;;3.70;;
55915;SDS011;41826;53.246;-6.670;2023-04-15T01:32:53;8.52;;;2.47;;
55915;SDS011;41826;53.246;-6.670;2023-04-15T01:35:18;6.97;;;2.35;;
55915;SDS011;41826;53.246;-6.670;2023-04-15T01:37:47;7.93;;;2.83;;
55915;SDS011;41826;53.246;-6.670;2023-04-15T01:40:13;4.53;;;2.60;;
55915;SDS011;41826;53.246;-6.670;2023-04-15T01:42:39;4.75;;;2.35;;
55915;SDS011;41826;53.246;-6.670;2023-04-15T01:45:05;9.40;;;2.65;;
55915;SDS011;41826;53.246;-6.670;2023-04-15T01:47:31;4.15;;;2.28;;
55915;SDS011;41826;53.246;-6.670;2023-04-15T01:49:56;3.47;;;1.83;;
55915;SDS011;41826;53.246;-6.670;2023-04-15T01:52:21;12.20;;;2.67;;
55915;SDS011;41826;53.246;-6.670;2023-04-15T01:54:47;6.65;;;2.35;;
55915;SDS011;41826;53.246;-6.670;2023-04-15T01:57:13;5.68;;;2.50;;
55915;SDS011;41826;53.246;-6.670;2023-04-15T01:59:38;4.47;;;2.10;;
55915;SDS011;41826;53.246;-6.670;2023-04-15T02:02:03;2.95;;;1.83;;
55915;SDS011;41826;53.246;-6.670;2023-04-15T02:04:29;4.85;;;2.40;;
55915;SDS011;41826;53.246;-6.670;2023-04-15T02:06:54;3.80;;;2.20;;
55915;SDS011;41826;53.246;-6.670;2023-04-15T02:09:20;3.50;;;2.15;;
55915;SDS011;41826;53.246;-6.670;2023-04-15T02:11:46;3.50;;;1.70;;
55915;SDS011;41826;53.246;-6.670;2023-04-15T02:14:11;3.55;;;1.85;;
55915;SDS011;41826;53.246;-6.670;2023-04-15T02:16:37;6.18;;;2.33;;
55915;SDS011;41826;53.246;-6.670;2023-04-15T02:19:02;6.55;;;2.13;;
55915;SDS011;41826;53.246;-6.670;2023-04-15T02:21:28;3.45;;;1.52;;
55915;SDS011;41826;53.246;-6.670;2023-04-15T02:23:54;3.47;;;2.10;;
55915;SDS011;41826;53.246;-6.670;2023-04-15T02:26:20;5.53;;;1.30;;
55915;SDS011;41826;53.246;-6.670;2023-04-15T02:28:46;3.35;;;2.08;;
55915;SDS011;41826;53.246;-6.670;2023-04-15T02:31:13;3.00;;;2.20;;
55915;SDS011;41826;53.246;-6.670;2023-04-15T02:33:38;3.97;;;1.40;;
55915;SDS011;41826;53.246;-6.670;2023-04-15T02:36:04;6.60;;;1.80;;
55915;SDS011;41826;53.246;-6.670;2023-04-15T02:38:30;1.70;;;1.48;;
55915;SDS011;41826;53.246;-6.670;2023-04-15T02:40:56;3.00;;;1.98;;
55915;SDS011;41826;53.246;-6.670;2023-04-15T02:43:21;4.10;;;1.83;;
55915;SDS011;41826;53.246;-6.670;2023-04-15T02:45:47;7.03;;;2.20;;
55915;SDS011;41826;53.246;-6.670;2023-04-15T02:48:14;4.95;;;1.83;;
55915;SDS011;41826;53.246;-6.670;2023-04-15T02:50:42;2.17;;;1.42;;
55915;SDS011;41826;53.246;-6.670;2023-04-15T02:53:07;4.05;;;2.08;;
55915;SDS011;41826;53.246;-6.670;2023-04-15T02:55:32;6.55;;;1.90;;
55915;SDS011;41826;53.246;-6.670;2023-04-15T02:57:58;2.95;;;1.60;;
55915;SDS011;41826;53.246;-6.670;2023-04-15T03:00:24;2.20;;;1.40;;
55915;SDS011;41826;53.246;-6.670;2023-04-15T03:02:50;1.73;;;1.48;;
55915;SDS011;41826;53.246;-6.670;2023-04-15T03:05:20;1.98;;;1.50;;
55915;SDS011;41826;53.246;-6.670;2023-04-15T03:07:52;4.90;;;1.98;;
55915;SDS011;41826;53.246;-6.670;2023-04-15T03:10:17;2.33;;;1.48;;
55915;SDS011;41826;53.246;-6.670;2023-04-15T03:12:43;3.45;;;1.60;;
55915;SDS011;41826;53.246;-6.670;2023-04-15T03:15:08;2.13;;;1.33;;
55915;SDS011;41826;53.246;-6.670;2023-04-15T03:17:34;2.97;;;1.33;;
55915;SDS011;41826;53.246;-6.670;2023-04-15T03:20:03;4.90;;;1.65;;
55915;SDS011;41826;53.246;-6.670;2023-04-15T03:22:33;4.65;;;1.50;;
55915;SDS011;41826;53.246;-6.670;2023-04-15T03:24:58;5.65;;;1.80;;
55915;SDS011;41826;53.246;-6.670;2023-04-15T03:27:24;5.53;;;2.17;;
55915;SDS011;41826;53.246;-6.670;2023-04-15T03:29:50;6.55;;;1.77;;
55915;SDS011;41826;53.246;-6.670;2023-04-15T03:32:16;5.90;;;2.45;;
55915;SDS011;41826;53.246;-6.670;2023-04-15T03:34:42;12.90;;;2.83;;
55915;SDS011;41826;53.246;-6.670;2023-04-15T03:37:07;3.63;;;1.60;;
55915;SDS011;41826;53.246;-6.670;2023-04-15T03:39:33;3.50;;;1.65;;
55915;SDS011;41826;53.246;-6.670;2023-04-15T03:41:58;6.15;;;1.90;;
55915;SDS011;41826;53.246;-6.670;2023-04-15T03:44:27;1.83;;;1.50;;
55915;SDS011;41826;53.246;-6.670;2023-04-15T03:46:52;2.42;;;1.52;;
55915;SDS011;41826;53.246;-6.670;2023-04-15T03:49:18;6.60;;;1.90;;
55915;SDS011;41826;53.246;-6.670;2023-04-15T03:51:47;4.28;;;2.10;;
55915;SDS011;41826;53.246;-6.670;2023-04-15T03:54:12;6.10;;;1.95;;
55915;SDS011;41826;53.246;-6.670;2023-04-15T03:56:39;7.55;;;2.80;;
55915;SDS011;41826;53.246;-6.670;2023-04-15T03:59:04;5.15;;;2.40;;
55915;SDS011;41826;53.246;-6.670;2023-04-15T04:01:30;2.90;;;1.92;;
55915;SDS011;41826;53.246;-6.670;2023-04-15T04:03:55;2.85;;;2.00;;
55915;SDS011;41826;53.246;-6.670;2023-04-15T04:06:21;7.75;;;2.10;;
55915;SDS011;41826;53.246;-6.670;2023-04-15T04:08:46;2.25;;;1.60;;
55915;SDS011;41826;53.246;-6.670;2023-04-15T04:11:12;2.20;;;1.63;;
55915;SDS011;41826;53.246;-6.670;2023-04-15T04:13:37;1.85;;;1.33;;
55915;SDS011;41826;53.246;-6.670;2023-04-15T04:16:02;2.08;;;1.73;;
55915;SDS011;41826;53.246;-6.670;2023-04-15T04:18:29;3.10;;;1.73;;
55915;SDS011;41826;53.246;-6.670;2023-04-15T04:20:55;5.95;;;1.73;;
55915;SDS011;41826;53.246;-6.670;2023-04-15T04:23:21;1.48;;;1.38;;
55915;SDS011;41826;53.246;-6.670;2023-04-15T04:25:46;3.33;;;1.38;;
55915;SDS011;41826;53.246;-6.670;2023-04-15T04:28:12;4.00;;;1.90;;
55915;SDS011;41826;53.246;-6.670;2023-04-15T04:30:38;2.55;;;1.88;;
55915;SDS011;41826;53.246;-6.670;2023-04-15T04:33:04;5.10;;;1.98;;
55915;SDS011;41826;53.246;-6.670;2023-04-15T04:35:30;3.30;;;1.50;;
55915;SDS011;41826;53.246;-6.670;2023-04-15T04:37:58;3.17;;;1.45;;
55915;SDS011;41826;53.246;-6.670;2023-04-15T04:40:24;4.82;;;2.22;;
55915;SDS011;41826;53.246;-6.670;2023-04-15T04:42:50;9.63;;;2.88;;
55915;SDS011;41826;53.246;-6.670;2023-04-15T04:45:15;2.60;;;1.70;;
55915;SDS011;41826;53.246;-6.670;2023-04-15T04:47:41;4.63;;;1.95;;
55915;SDS011;41826;53.246;-6.670;2023-04-15T04:50:06;3.58;;;1.92;;
55915;SDS011;41826;53.246;-6.670;2023-04-15T04:52:33;9.50;;;2.90;;
55915;SDS011;41826;53.246;-6.670;2023-04-15T04:54:58;4.80;;;1.60;;
55915;SDS011;41826;53.246;-6.670;2023-04-15T04:57:23;3.97;;;2.05;;
55915;SDS011;41826;53.246;-6.670;2023-04-15T04:59:52;1.77;;;1.42;;
55915;SDS011;41826;53.246;-6.670;2023-04-15T05:02:17;4.00;;;2.10;;
55915;SDS011;41826;53.246;-6.670;2023-04-15T05:04:53;4.40;;;1.95;;
55915;SDS011;41826;53.246;-6.670;2023-04-15T05:07:22;10.10;;;2.70;;
55915;SDS011;41826;53.246;-6.670;2023-04-15T05:09:47;10.23;;;2.65;;
55915;SDS011;41826;53.246;-6.670;2023-04-15T05:12:13;4.30;;;1.73;;
55915;SDS011;41826;53.246;-6.670;2023-04-15T05:14:42;4.68;;;1.90;;
55915;SDS011;41826;53.246;-6.670;2023-04-15T05:17:07;6.50;;;2.05;;
55915;SDS011;41826;53.246;-6.670;2023-04-15T05:19:33;4.18;;;1.90;;
55915;SDS011;41826;53.246;-6.670;2023-04-15T05:21:58;2.33;;;1.52;;
55915;SDS011;41826;53.246;-6.670;2023-04-15T05:24:24;1.27;;;1.15;;
55915;SDS011;41826;53.246;-6.670;2023-04-15T05:26:50;1.20;;;1.10;;
55915;SDS011;41826;53.246;-6.670;2023-04-15T05:29:15;1.95;;;1.55;;
55915;SDS011;41826;53.246;-6.670;2023-04-15T05:31:41;6.15;;;2.05;;
55915;SDS011;41826;53.246;-6.670;2023-04-15T05:34:07;6.60;;;2.20;;
55915;SDS011;41826;53.246;-6.670;2023-04-15T05:36:32;3.50;;;1.30;;
55915;SDS011;41826;53.246;-6.670;2023-04-15T05:38:57;0.90;;;0.90;;
55915;SDS011;41826;53.246;-6.670;2023-04-15T05:41:23;3.03;;;1.20;;
55915;SDS011;41826;53.246;-6.670;2023-04-15T05:43:48;9.18;;;2.85;;
55915;SDS011;41826;53.246;-6.670;2023-04-15T05:46:14;4.95;;;1.95;;
55915;SDS011;41826;53.246;-6.670;2023-04-15T05:48:39;6.95;;;2.88;;
55915;SDS011;41826;53.246;-6.670;2023-04-15T05:51:05;3.25;;;1.63;;
55915;SDS011;41826;53.246;-6.670;2023-04-15T05:53:31;7.65;;;2.42;;
55915;SDS011;41826;53.246;-6.670;2023-04-15T05:55:56;5.22;;;2.65;;
55915;SDS011;41826;53.246;-6.670;2023-04-15T05:58:21;5.55;;;2.95;;
55915;SDS011;41826;53.246;-6.670;2023-04-15T06:00:47;14.48;;;3.08;;
55915;SDS011;41826;53.246;-6.670;2023-04-15T06:03:12;5.13;;;2.83;;
55915;SDS011;41826;53.246;-6.670;2023-04-15T06:05:38;6.80;;;2.53;;
55915;SDS011;41826;53.246;-6.670;2023-04-15T06:08:04;10.77;;;3.45;;
55915;SDS011;41826;53.246;-6.670;2023-04-15T06:10:30;10.95;;;3.92;;
55915;SDS011;41826;53.246;-6.670;2023-04-15T06:13:00;8.10;;;3.10;;
55915;SDS011;41826;53.246;-6.670;2023-04-15T06:15:26;9.00;;;3.05;;
55915;SDS011;41826;53.246;-6.670;2023-04-15T06:17:52;9.43;;;3.13;;
55915;SDS011;41826;53.246;-6.670;2023-04-15T06:20:17;9.98;;;3.35;;
55915;SDS011;41826;53.246;-6.670;2023-04-15T06:22:42;10.65;;;3.67;;
55915;SDS011;41826;53.246;-6.670;2023-04-15T06:25:08;8.27;;;3.00;;
55915;SDS011;41826;53.246;-6.670;2023-04-15T06:27:33;9.57;;;2.83;;
55915;SDS011;41826;53.246;-6.670;2023-04-15T06:29:59;8.73;;;3.00;;
55915;SDS011;41826;53.246;-6.670;2023-04-15T06:32:24;8.40;;;2.95;;
55915;SDS011;41826;53.246;-6.670;2023-04-15T06:34:50;8.85;;;2.65;;
55915;SDS011;41826;53.246;-6.670;2023-04-15T06:37:16;7.47;;;2.50;;
55915;SDS011;41826;53.246;-6.670;2023-04-15T06:39:41;5.15;;;2.35;;
55915;SDS011;41826;53.246;-6.670;2023-04-15T06:42:07;10.35;;;4.15;;
55915;SDS011;41826;53.246;-6.670;2023-04-15T06:44:33;6.78;;;3.88;;
55915;SDS011;41826;53.246;-6.670;2023-04-15T06:46:59;7.03;;;3.55;;
55915;SDS011;41826;53.246;-6.670;2023-04-15T06:49:25;14.82;;;3.30;;
55915;SDS011;41826;53.246;-6.670;2023-04-15T06:51:50;7.03;;;2.30;;
55915;SDS011;41826;53.246;-6.670;2023-04-15T06:54:16;7.47;;;2.30;;
55915;SDS011;41826;53.246;-6.670;2023-04-15T06:56:42;6.32;;;2.80;;
55915;SDS011;41826;53.246;-6.670;2023-04-15T06:59:07;7.53;;;2.47;;
55915;SDS011;41826;53.246;-6.670;2023-04-15T07:01:36;3.70;;;2.20;;
55915;SDS011;41826;53.246;-6.670;2023-04-15T07:04:02;9.50;;;2.05;;
55915;SDS011;41826;53.246;-6.670;2023-04-15T07:06:30;10.77;;;3.35;;
55915;SDS011;41826;53.246;-6.670;2023-04-15T07:08:56;9.23;;;2.42;;
55915;SDS011;41826;53.246;-6.670;2023-04-15T07:11:25;7.25;;;2.03;;
55915;SDS011;41826;53.246;-6.670;2023-04-15T07:13:50;11.80;;;2.40;;
55915;SDS011;41826;53.246;-6.670;2023-04-15T07:16:16;9.23;;;2.25;;
55915;SDS011;41826;53.246;-6.670;2023-04-15T07:18:41;6.07;;;1.65;;
55915;SDS011;41826;53.246;-6.670;2023-04-15T07:21:07;7.65;;;2.15;;
55915;SDS011;41826;53.246;-6.670;2023-04-15T07:23:33;4.20;;;1.92;;
55915;SDS011;41826;53.246;-6.670;2023-04-15T07:25:58;6.40;;;1.73;;
55915;SDS011;41826;53.246;-6.670;2023-04-15T07:28:24;4.13;;;1.95;;
55915;SDS011;41826;53.246;-6.670;2023-04-15T07:30:49;3.53;;;1.58;;
55915;SDS011;41826;53.246;-6.670;2023-04-15T07:33:15;8.95;;;1.75;;
55915;SDS011;41826;53.246;-6.670;2023-04-15T07:35:40;3.97;;;1.67;;
55915;SDS011;41826;53.246;-6.670;2023-04-15T07:38:05;3.63;;;2.38;;
55915;SDS011;41826;53.246;-6.670;2023-04-15T07:40:31;4.15;;;1.67;;
55915;SDS011;41826;53.246;-6.670;2023-04-15T07:42:57;8.10;;;1.60;;
55915;SDS011;41826;53.246;-6.670;2023-04-15T07:45:22;5.05;;;1.90;;
55915;SDS011;41826;53.246;-6.670;2023-04-15T07:47:48;6.55;;;1.52;;
55915;SDS011;41826;53.246;-6.670;2023-04-15T07:50:16;5.03;;;1.60;;
55915;SDS011;41826;53.246;-6.670;2023-04-15T07:52:43;4.97;;;1.50;;
55915;SDS011;41826;53.246;-6.670;2023-04-15T07:55:09;5.85;;;1.60;;
55915;SDS011;41826;53.246;-6.670;2023-04-15T07:57:34;7.93;;;1.83;;
55915;SDS011;41826;53.246;-6.670;2023-04-15T08:00:01;5.80;;;2.05;;
55915;SDS011;41826;53.246;-6.670;2023-04-15T08:02:29;8.07;;;1.77;;
55915;SDS011;41826;53.246;-6.670;2023-04-15T08:04:55;6.15;;;1.80;;
55915;SDS011;41826;53.246;-6.670;2023-04-15T08:07:21;4.93;;;1.17;;
55915;SDS011;41826;53.246;-6.670;2023-04-15T08:09:47;3.97;;;1.58;;
55915;SDS011;41826;53.246;-6.670;2023-04-15T08:12:12;8.20;;;3.90;;
55915;SDS011;41826;53.246;-6.670;2023-04-15T08:14:38;5.80;;;1.40;;
55915;SDS011;41826;53.246;-6.670;2023-04-15T08:17:04;5.57;;;1.15;;
55915;SDS011;41826;53.246;-6.670;2023-04-15T08:19:30;5.75;;;1.20;;
55915;SDS011;41826;53.246;-6.670;2023-04-15T08:21:56;8.60;;;0.98;;
55915;SDS011;41826;53.246;-6.670;2023-04-15T08:24:21;6.88;;;1.85;;
55915;SDS011;41826;53.246;-6.670;2023-04-15T08:26:47;20.05;;;5.55;;
55915;SDS011;41826;53.246;-6.670;2023-04-15T08:29:13;7.63;;;1.35;;
55915;SDS011;41826;53.246;-6.670;2023-04-15T08:31:38;5.15;;;1.17;;
55915;SDS011;41826;53.246;-6.670;2023-04-15T08:34:04;7.03;;;2.20;;
55915;SDS011;41826;53.246;-6.670;2023-04-15T08:36:29;6.45;;;2.10;;
55915;SDS011;41826;53.246;-6.670;2023-04-15T08:38:56;7.75;;;1.75;;
55915;SDS011;41826;53.246;-6.670;2023-04-15T08:41:23;6.57;;;1.50;;
55915;SDS011;41826;53.246;-6.670;2023-04-15T08:43:56;4.05;;;1.35;;
55915;SDS011;41826;53.246;-6.670;2023-04-15T08:46:25;5.72;;;1.45;;
55915;SDS011;41826;53.246;-6.670;2023-04-15T08:48:51;2.38;;;0.80;;
55915;SDS011;41826;53.246;-6.670;2023-04-15T08:51:21;2.90;;;0.90;;
55915;SDS011;41826;53.246;-6.670;2023-04-15T08:53:46;3.30;;;1.42;;
55915;SDS011;41826;53.246;-6.670;2023-04-15T08:56:14;7.60;;;1.55;;
55915;SDS011;41826;53.246;-6.670;2023-04-15T08:58:43;7.72;;;1.33;;
55915;SDS011;41826;53.246;-6.670;2023-04-15T09:01:10;8.65;;;1.25;;
55915;SDS011;41826;53.246;-6.670;2023-04-15T09:03:37;3.45;;;1.30;;
55915;SDS011;41826;53.246;-6.670;2023-04-15T09:06:03;7.13;;;1.23;;
55915;SDS011;41826;53.246;-6.670;2023-04-15T09:08:30;2.33;;;1.10;;
55915;SDS011;41826;53.246;-6.670;2023-04-15T09:10:55;4.43;;;1.55;;
55915;SDS011;41826;53.246;-6.670;2023-04-15T09:13:21;5.43;;;1.05;;
55915;SDS011;41826;53.246;-6.670;2023-04-15T09:15:47;3.33;;;1.25;;
55915;SDS011;41826;53.246;-6.670;2023-04-15T09:18:13;4.95;;;1.42;;
55915;SDS011;41826;53.246;-6.670;2023-04-15T09:20:52;2.72;;;1.50;;
55915;SDS011;41826;53.246;-6.670;2023-04-15T09:23:18;2.47;;;1.00;;
55915;SDS011;41826;53.246;-6.670;2023-04-15T09:25:46;5.60;;;1.38;;
55915;SDS011;41826;53.246;-6.670;2023-04-15T09:28:13;3.80;;;1.00;;
55915;SDS011;41826;53.246;-6.670;2023-04-15T09:30:41;1.35;;;0.65;;
55915;SDS011;41826;53.246;-6.670;2023-04-15T09:33:13;1.13;;;1.00;;
55915;SDS011;41826;53.246;-6.670;2023-04-15T09:35:38;4.50;;;1.40;;
55915;SDS011;41826;53.246;-6.670;2023-04-15T09:38:08;2.10;;;0.90;;
55915;SDS011;41826;53.246;-6.670;2023-04-15T09:40:34;3.20;;;0.80;;
55915;SDS011;41826;53.246;-6.670;2023-04-15T09:43:00;5.95;;;0.93;;
55915;SDS011;41826;53.246;-6.670;2023-04-15T09:45:27;4.97;;;1.00;;
55915;SDS011;41826;53.246;-6.670;2023-04-15T09:47:56;6.10;;;0.93;;
55915;SDS011;41826;53.246;-6.670;2023-04-15T09:50:28;2.78;;;0.80;;
55915;SDS011;41826;53.246;-6.670;2023-04-15T09:52:56;7.70;;;1.20;;
55915;SDS011;41826;53.246;-6.670;2023-04-15T09:55:32;6.78;;;0.95;;
55915;SDS011;41826;53.246;-6.670;2023-04-15T09:57:57;2.53;;;0.70;;
55915;SDS011;41826;53.246;-6.670;2023-04-15T10:00:25;3.70;;;0.90;;
55915;SDS011;41826;53.246;-6.670;2023-04-15T10:02:53;4.93;;;0.70;;
55915;SDS011;41826;53.246;-6.670;2023-04-15T10:05:31;3.13;;;0.80;;
55915;SDS011;41826;53.246;-6.670;2023-04-15T10:08:01;3.35;;;0.98;;
55915;SDS011;41826;53.246;-6.670;2023-04-15T10:10:28;1.23;;;0.75;;
55915;SDS011;41826;53.246;-6.670;2023-04-15T10:12:53;2.28;;;0.60;;
55915;SDS011;41826;53.246;-6.670;2023-04-15T10:15:20;1.05;;;0.73;;
55915;SDS011;41826;53.246;-6.670;2023-04-15T10:17:46;6.30;;;1.02;;
55915;SDS011;41826;53.246;-6.670;2023-04-15T10:20:17;4.05;;;0.85;;
55915;SDS011;41826;53.246;-6.670;2023-04-15T10:22:43;2.55;;;0.90;;
55915;SDS011;41826;53.246;-6.670;2023-04-15T10:25:09;1.75;;;0.70;;
55915;SDS011;41826;53.246;-6.670;2023-04-15T10:27:35;2.88;;;1.75;;
55915;SDS011;41826;53.246;-6.670;2023-04-15T10:30:03;4.38;;;0.88;;
55915;SDS011;41826;53.246;-6.670;2023-04-15T10:32:30;0.68;;;0.60;;
55915;SDS011;41826;53.246;-6.670;2023-04-15T10:34:55;2.42;;;0.70;;
55915;SDS011;41826;53.246;-6.670;2023-04-15T10:37:36;4.68;;;0.50;;
55915;SDS011;41826;53.246;-6.670;2023-04-15T10:43:23;3.10;;;0.50;;
55915;SDS011;41826;53.246;-6.670;2023-04-15T10:45:52;2.63;;;0.95;;
55915;SDS011;41826;53.246;-6.670;2023-04-15T10:48:20;0.80;;;0.57;;
55915;SDS011;41826;53.246;-6.670;2023-04-15T10:50:55;5.72;;;0.55;;
55915;SDS011;41826;53.246;-6.670;2023-04-15T10:53:27;1.73;;;0.65;;
55915;SDS011;41826;53.246;-6.670;2023-04-15T10:55:58;2.25;;;0.80;;
55915;SDS011;41826;53.246;-6.670;2023-04-15T10:58:26;2.28;;;0.75;;
55915;SDS011;41826;53.246;-6.670;2023-04-15T11:01:06;5.15;;;0.90;;
55915;SDS011;41826;53.246;-6.670;2023-04-15T11:03:38;2.20;;;0.50;;
55915;SDS011;41826;53.246;-6.670;2023-04-15T11:06:07;4.22;;;0.65;;
55915;SDS011;41826;53.246;-6.670;2023-04-15T11:08:54;4.10;;;0.88;;
55915;SDS011;41826;53.246;-6.670;2023-04-15T11:11:25;2.40;;;0.70;;
55915;SDS011;41826;53.246;-6.670;2023-04-15T11:14:26;2.50;;;0.40;;
55915;SDS011;41826;53.246;-6.670;2023-04-15T11:16:54;2.60;;;0.50;;
55915;SDS011;41826;53.246;-6.670;2023-04-15T11:19:20;2.05;;;0.68;;
55915;SDS011;41826;53.246;-6.670;2023-04-15T11:21:46;1.83;;;0.60;;
55915;SDS011;41826;53.246;-6.670;2023-04-15T11:24:22;4.70;;;0.60;;
55915;SDS011;41826;53.246;-6.670;2023-04-15T11:26:50;2.75;;;0.65;;
55915;SDS011;41826;53.246;-6.670;2023-04-15T11:29:21;3.47;;;0.70;;
55915;SDS011;41826;53.246;-6.670;2023-04-15T11:31:47;2.05;;;0.50;;
55915;SDS011;41826;53.246;-6.670;2023-04-15T11:34:21;1.83;;;0.52;;
55915;SDS011;41826;53.246;-6.670;2023-04-15T11:36:47;3.28;;;0.50;;
55915;SDS011;41826;53.246;-6.670;2023-04-15T11:39:12;0.80;;;0.40;;
55915;SDS011;41826;53.246;-6.670;2023-04-15T11:41:40;4.05;;;0.75;;
55915;SDS011;41826;53.246;-6.670;2023-04-15T11:44:15;0.80;;;0.40;;
55915;SDS011;41826;53.246;-6.670;2023-04-15T11:46:41;4.28;;;0.65;;
55915;SDS011;41826;53.246;-6.670;2023-04-15T11:49:07;1.58;;;0.45;;
55915;SDS011;41826;53.246;-6.670;2023-04-15T11:51:32;5.20;;;0.50;;
55915;SDS011;41826;53.246;-6.670;2023-04-15T11:53:58;14.05;;;5.47;;
55915;SDS011;41826;53.246;-6.670;2023-04-15T11:56:25;1.95;;;0.80;;
55915;SDS011;41826;53.246;-6.670;2023-04-15T11:58:58;1.77;;;0.60;;
55915;SDS011;41826;53.246;-6.670;2023-04-15T12:01:30;2.42;;;1.15;;
55915;SDS011;41826;53.246;-6.670;2023-04-15T12:03:59;4.20;;;0.68;;
55915;SDS011;41826;53.246;-6.670;2023-04-15T12:06:30;3.80;;;0.70;;
55915;SDS011;41826;53.246;-6.670;2023-04-15T12:08:58;4.28;;;0.70;;
55915;SDS011;41826;53.246;-6.670;2023-04-15T12:16:43;0.98;;;0.43;;
55915;SDS011;41826;53.246;-6.670;2023-04-15T12:19:14;1.80;;;0.50;;
55915;SDS011;41826;53.246;-6.670;2023-04-15T12:21:43;1.77;;;0.60;;
55915;SDS011;41826;53.246;-6.670;2023-04-15T12:24:11;1.65;;;0.52;;
55915;SDS011;41826;53.246;-6.670;2023-04-15T12:26:43;2.75;;;0.57;;
55915;SDS011;41826;53.246;-6.670;2023-04-15T12:29:14;0.40;;;0.40;;
55915;SDS011;41826;53.246;-6.670;2023-04-15T12:31:48;2.13;;;0.38;;
55915;SDS011;41826;53.246;-6.670;2023-04-15T12:34:32;1.05;;;0.40;;
55915;SDS011;41826;53.246;-6.670;2023-04-15T12:37:00;1.95;;;0.43;;
55915;SDS011;41826;53.246;-6.670;2023-04-15T12:39:28;1.17;;;0.40;;
55915;SDS011;41826;53.246;-6.670;2023-04-15T12:41:56;1.92;;;0.30;;
55915;SDS011;41826;53.246;-6.670;2023-04-15T12:44:24;1.50;;;0.55;;
55915;SDS011;41826;53.246;-6.670;2023-04-15T12:46:57;0.57;;;0.40;;
55915;SDS011;41826;53.246;-6.670;2023-04-15T12:49:25;0.60;;;0.40;;
55915;SDS011;41826;53.246;-6.670;2023-04-15T12:51:54;1.98;;;0.40;;
55915;SDS011;41826;53.246;-6.670;2023-04-15T12:54:23;0.90;;;0.40;;
55915;SDS011;41826;53.246;-6.670;2023-04-15T12:56:52;0.73;;;0.40;;
55915;SDS011;41826;53.246;-6.670;2023-04-15T12:59:20;1.55;;;0.50;;
55915;SDS011;41826;53.246;-6.670;2023-04-15T13:01:52;1.52;;;0.40;;
55915;SDS011;41826;53.246;-6.670;2023-04-15T13:04:18;3.53;;;0.40;;
55915;SDS011;41826;53.246;-6.670;2023-04-15T13:06:47;2.22;;;0.60;;
55915;SDS011;41826;53.246;-6.670;2023-04-15T13:09:15;2.55;;;0.43;;
55915;SDS011;41826;53.246;-6.670;2023-04-15T13:11:40;3.47;;;0.88;;
55915;SDS011;41826;53.246;-6.670;2023-04-15T13:14:07;0.82;;;0.40;;
55915;SDS011;41826;53.246;-6.670;2023-04-15T13:16:36;1.20;;;0.40;;
55915;SDS011;41826;53.246;-6.670;2023-04-15T13:19:02;1.05;;;0.60;;
55915;SDS011;41826;53.246;-6.670;2023-04-15T13:21:28;2.38;;;0.47;;
55915;SDS011;41826;53.246;-6.670;2023-04-15T13:24:01;1.63;;;0.47;;
55915;SDS011;41826;53.246;-6.670;2023-04-15T13:26:30;2.35;;;0.45;;
55915;SDS011;41826;53.246;-6.670;2023-04-15T13:28:56;3.08;;;0.55;;
55915;SDS011;41826;53.246;-6.670;2023-04-15T13:31:24;1.10;;;0.73;;
55915;SDS011;41826;53.246;-6.670;2023-04-15T13:33:50;4.18;;;0.80;;
55915;SDS011;41826;53.246;-6.670;2023-04-15T13:36:18;1.85;;;0.50;;
55915;SDS011;41826;53.246;-6.670;2023-04-15T13:38:54;0.40;;;0.40;;
55915;SDS011;41826;53.246;-6.670;2023-04-15T13:41:22;1.73;;;0.50;;
55915;SDS011;41826;53.246;-6.670;2023-04-15T13:43:47;3.55;;;0.40;;
55915;SDS011;41826;53.246;-6.670;2023-04-15T13:46:13;2.17;;;0.65;;
55915;SDS011;41826;53.246;-6.670;2023-04-15T13:48:38;7.13;;;0.40;;
55915;SDS011;41826;53.246;-6.670;2023-04-15T13:51:06;1.60;;;0.75;;
55915;SDS011;41826;53.246;-6.670;2023-04-15T13:53:32;2.42;;;0.50;;
55915;SDS011;41826;53.246;-6.670;2023-04-15T13:56:00;2.03;;;0.45;;
55915;SDS011;41826;53.246;-6.670;2023-04-15T13:58:25;1.17;;;0.50;;
55915;SDS011;41826;53.246;-6.670;2023-04-15T14:01:01;2.72;;;0.60;;
55915;SDS011;41826;53.246;-6.670;2023-04-15T14:03:29;2.88;;;0.60;;
55915;SDS011;41826;53.246;-6.670;2023-04-15T14:05:57;2.45;;;0.70;;
55915;SDS011;41826;53.246;-6.670;2023-04-15T14:08:23;1.33;;;0.98;;
55915;SDS011;41826;53.246;-6.670;2023-04-15T14:10:49;1.08;;;0.50;;
55915;SDS011;41826;53.246;-6.670;2023-04-15T14:13:26;1.38;;;0.40;;
55915;SDS011;41826;53.246;-6.670;2023-04-15T14:15:56;5.70;;;0.60;;
55915;SDS011;41826;53.246;-6.670;2023-04-15T14:18:27;2.45;;;0.60;;
55915;SDS011;41826;53.246;-6.670;2023-04-15T14:20:54;1.52;;;0.82;;
55915;SDS011;41826;53.246;-6.670;2023-04-15T14:23:27;1.73;;;0.45;;
55915;SDS011;41826;53.246;-6.670;2023-04-15T14:25:53;5.28;;;0.57;;
55915;SDS011;41826;53.246;-6.670;2023-04-15T14:28:25;3.33;;;0.90;;
55915;SDS011;41826;53.246;-6.670;2023-04-15T14:30:53;1.58;;;1.15;;
55915;SDS011;41826;53.246;-6.670;2023-04-15T14:33:22;2.03;;;0.47;;
55915;SDS011;41826;53.246;-6.670;2023-04-15T14:35:48;1.85;;;0.50;;
55915;SDS011;41826;53.246;-6.670;2023-04-15T14:38:15;2.72;;;0.70;;
55915;SDS011;41826;53.246;-6.670;2023-04-15T14:40:40;3.30;;;0.90;;